sensor_id;sensor_type;location;lat;lon;timestamp;P1;durP1;ratioP1;P2;durP2;ratioP2
71162;SDS011;58858;50.948;6.566;2024-01-30T00:05:55;13.50;;;7.35;;
71162;SDS011;58858;50.948;6.566;2024-01-30T00:15:56;10.43;;;7.18;;
71162;SDS011;58858;50.948;6.566;2024-01-30T00:25:57;12.55;;;7.95;;
71162;SDS011;58858;50.948;6.566;2024-01-30T00:35:58;13.93;;;7.07;;
71162;SDS011;58858;50.948;6.566;2024-01-30T00:45:59;11.63;;;7.03;;
71162;SDS011;58858;50.948;6.566;2024-01-30T00:56:01;11.02;;;7.70;;
71162;SDS011;58858;50.948;6.566;2024-01-30T01:06:02;13.88;;;8.90;;
71162;SDS011;58858;50.948;6.566;2024-01-30T01:16:03;9.65;;;6.25;;
71162;SDS011;58858;50.948;6.566;2024-01-30T01:26:04;11.77;;;7.03;;
71162;SDS011;58858;50.948;6.566;2024-01-30T01:36:06;18.45;;;8.43;;
71162;SDS011;58858;50.948;6.566;2024-01-30T01:46:07;12.95;;;7.85;;
71162;SDS011;58858;50.948;6.566;2024-01-30T01:56:09;11.43;;;7.60;;
71162;SDS011;58858;50.948;6.566;2024-01-30T02:06:10;12.05;;;7.53;;
71162;SDS011;58858;50.948;6.566;2024-01-30T02:16:11;10.75;;;7.32;;
71162;SDS011;58858;50.948;6.566;2024-01-30T02:26:12;10.95;;;7.25;;
71162;SDS011;58858;50.948;6.566;2024-01-30T02:36:13;10.80;;;6.40;;
71162;SDS011;58858;50.948;6.566;2024-01-30T02:46:16;14.07;;;7.50;;
71162;SDS011;58858;50.948;6.566;2024-01-30T02:56:17;10.50;;;7.32;;
71162;SDS011;58858;50.948;6.566;2024-01-30T03:06:18;13.52;;;7.55;;
71162;SDS011;58858;50.948;6.566;2024-01-30T03:16:20;14.93;;;7.53;;
71162;SDS011;58858;50.948;6.566;2024-01-30T03:26:21;12.35;;;6.53;;
71162;SDS011;58858;50.948;6.566;2024-01-30T03:36:23;11.68;;;6.07;;
71162;SDS011;58858;50.948;6.566;2024-01-30T03:46:24;10.20;;;6.97;;
71162;SDS011;58858;50.948;6.566;2024-01-30T03:56:25;14.60;;;6.68;;
71162;SDS011;58858;50.948;6.566;2024-01-30T04:06:26;13.35;;;6.50;;
71162;SDS011;58858;50.948;6.566;2024-01-30T04:16:27;10.00;;;5.50;;
71162;SDS011;58858;50.948;6.566;2024-01-30T04:26:28;10.35;;;5.65;;
71162;SDS011;58858;50.948;6.566;2024-01-30T04:36:29;10.93;;;6.30;;
71162;SDS011;58858;50.948;6.566;2024-01-30T04:46:30;7.88;;;5.72;;
71162;SDS011;58858;50.948;6.566;2024-01-30T04:56:32;10.55;;;5.93;;
71162;SDS011;58858;50.948;6.566;2024-01-30T05:06:35;11.43;;;6.68;;
71162;SDS011;58858;50.948;6.566;2024-01-30T05:16:36;10.07;;;6.50;;
71162;SDS011;58858;50.948;6.566;2024-01-30T05:26:37;10.82;;;6.53;;
71162;SDS011;58858;50.948;6.566;2024-01-30T05:36:38;10.85;;;6.03;;
71162;SDS011;58858;50.948;6.566;2024-01-30T05:46:39;12.77;;;8.15;;
71162;SDS011;58858;50.948;6.566;2024-01-30T05:56:41;10.90;;;6.97;;
71162;SDS011;58858;50.948;6.566;2024-01-30T06:06:42;10.68;;;6.32;;
71162;SDS011;58858;50.948;6.566;2024-01-30T06:16:43;10.75;;;6.93;;
71162;SDS011;58858;50.948;6.566;2024-01-30T06:26:44;10.85;;;6.60;;
71162;SDS011;58858;50.948;6.566;2024-01-30T06:36:45;9.75;;;6.00;;
71162;SDS011;58858;50.948;6.566;2024-01-30T06:46:46;20.98;;;11.88;;
71162;SDS011;58858;50.948;6.566;2024-01-30T06:56:47;17.30;;;9.35;;
71162;SDS011;58858;50.948;6.566;2024-01-30T07:06:48;13.73;;;7.22;;
71162;SDS011;58858;50.948;6.566;2024-01-30T07:16:49;13.27;;;5.97;;
71162;SDS011;58858;50.948;6.566;2024-01-30T07:26:51;9.32;;;5.38;;
71162;SDS011;58858;50.948;6.566;2024-01-30T07:36:52;11.32;;;6.53;;
71162;SDS011;58858;50.948;6.566;2024-01-30T07:46:53;11.13;;;6.22;;
71162;SDS011;58858;50.948;6.566;2024-01-30T07:56:55;9.27;;;6.30;;
71162;SDS011;58858;50.948;6.566;2024-01-30T08:06:56;12.38;;;6.28;;
71162;SDS011;58858;50.948;6.566;2024-01-30T08:17:00;10.60;;;6.05;;
71162;SDS011;58858;50.948;6.566;2024-01-30T08:27:04;11.50;;;7.00;;
71162;SDS011;58858;50.948;6.566;2024-01-30T08:37:05;11.63;;;6.60;;
71162;SDS011;58858;50.948;6.566;2024-01-30T08:47:06;11.52;;;7.00;;
71162;SDS011;58858;50.948;6.566;2024-01-30T08:57:08;10.52;;;5.88;;
71162;SDS011;58858;50.948;6.566;2024-01-30T09:07:09;12.95;;;7.90;;
71162;SDS011;58858;50.948;6.566;2024-01-30T09:17:10;14.48;;;7.38;;
71162;SDS011;58858;50.948;6.566;2024-01-30T09:27:11;12.95;;;8.27;;
71162;SDS011;58858;50.948;6.566;2024-01-30T09:37:12;15.43;;;8.18;;
71162;SDS011;58858;50.948;6.566;2024-01-30T09:47:16;13.60;;;7.10;;
71162;SDS011;58858;50.948;6.566;2024-01-30T09:57:17;7.75;;;5.45;;
71162;SDS011;58858;50.948;6.566;2024-01-30T10:07:18;10.65;;;5.03;;
71162;SDS011;58858;50.948;6.566;2024-01-30T10:17:20;10.65;;;5.90;;
71162;SDS011;58858;50.948;6.566;2024-01-30T10:27:28;14.88;;;7.28;;
71162;SDS011;58858;50.948;6.566;2024-01-30T10:37:30;16.15;;;9.35;;
71162;SDS011;58858;50.948;6.566;2024-01-30T10:47:36;10.38;;;4.43;;
71162;SDS011;58858;50.948;6.566;2024-01-30T10:57:38;23.40;;;4.37;;
71162;SDS011;58858;50.948;6.566;2024-01-30T11:07:39;7.47;;;3.75;;
71162;SDS011;58858;50.948;6.566;2024-01-30T11:17:50;9.77;;;3.53;;
71162;SDS011;58858;50.948;6.566;2024-01-30T11:27:53;11.45;;;4.38;;
71162;SDS011;58858;50.948;6.566;2024-01-30T11:37:55;10.00;;;5.07;;
71162;SDS011;58858;50.948;6.566;2024-01-30T11:47:58;12.00;;;5.18;;
71162;SDS011;58858;50.948;6.566;2024-01-30T11:58:04;8.93;;;5.13;;
71162;SDS011;58858;50.948;6.566;2024-01-30T12:08:05;9.63;;;4.30;;
71162;SDS011;58858;50.948;6.566;2024-01-30T12:18:06;10.50;;;4.57;;
71162;SDS011;58858;50.948;6.566;2024-01-30T12:28:08;6.97;;;3.83;;
71162;SDS011;58858;50.948;6.566;2024-01-30T12:38:09;8.73;;;4.20;;
71162;SDS011;58858;50.948;6.566;2024-01-30T12:48:10;10.07;;;4.75;;
71162;SDS011;58858;50.948;6.566;2024-01-30T12:58:11;10.05;;;3.92;;
71162;SDS011;58858;50.948;6.566;2024-01-30T13:08:12;8.68;;;4.47;;
71162;SDS011;58858;50.948;6.566;2024-01-30T13:18:14;11.88;;;5.03;;
71162;SDS011;58858;50.948;6.566;2024-01-30T13:28:15;10.02;;;4.93;;
71162;SDS011;58858;50.948;6.566;2024-01-30T13:38:16;8.57;;;4.60;;
71162;SDS011;58858;50.948;6.566;2024-01-30T13:48:17;10.88;;;5.32;;
71162;SDS011;58858;50.948;6.566;2024-01-30T13:58:18;12.55;;;5.45;;
71162;SDS011;58858;50.948;6.566;2024-01-30T14:08:20;9.57;;;4.97;;
71162;SDS011;58858;50.948;6.566;2024-01-30T14:18:22;11.75;;;5.28;;
71162;SDS011;58858;50.948;6.566;2024-01-30T14:28:23;11.02;;;5.10;;
71162;SDS011;58858;50.948;6.566;2024-01-30T14:38:24;10.90;;;6.10;;
71162;SDS011;58858;50.948;6.566;2024-01-30T14:48:29;9.73;;;4.47;;
71162;SDS011;58858;50.948;6.566;2024-01-30T14:58:31;11.27;;;4.80;;
71162;SDS011;58858;50.948;6.566;2024-01-30T15:08:32;13.18;;;5.13;;
71162;SDS011;58858;50.948;6.566;2024-01-30T15:18:33;14.07;;;6.07;;
71162;SDS011;58858;50.948;6.566;2024-01-30T15:28:35;9.65;;;5.93;;
71162;SDS011;58858;50.948;6.566;2024-01-30T15:38:41;14.95;;;5.15;;
71162;SDS011;58858;50.948;6.566;2024-01-30T15:48:42;12.02;;;4.00;;
71162;SDS011;58858;50.948;6.566;2024-01-30T15:58:43;6.82;;;2.10;;
71162;SDS011;58858;50.948;6.566;2024-01-30T16:08:49;6.25;;;0.98;;
71162;SDS011;58858;50.948;6.566;2024-01-30T16:18:51;3.53;;;1.08;;
71162;SDS011;58858;50.948;6.566;2024-01-30T16:28:52;1.20;;;0.68;;
71162;SDS011;58858;50.948;6.566;2024-01-30T16:38:54;1.70;;;0.80;;
71162;SDS011;58858;50.948;6.566;2024-01-30T16:48:55;1.65;;;0.63;;
71162;SDS011;58858;50.948;6.566;2024-01-30T16:58:56;1.17;;;0.50;;
71162;SDS011;58858;50.948;6.566;2024-01-30T17:08:57;1.40;;;0.70;;
71162;SDS011;58858;50.948;6.566;2024-01-30T17:18:58;1.55;;;0.55;;
71162;SDS011;58858;50.948;6.566;2024-01-30T17:28:59;1.52;;;0.77;;
71162;SDS011;58858;50.948;6.566;2024-01-30T17:39:00;2.70;;;1.23;;
71162;SDS011;58858;50.948;6.566;2024-01-30T17:49:01;2.03;;;0.80;;
71162;SDS011;58858;50.948;6.566;2024-01-30T17:59:04;3.30;;;1.25;;
71162;SDS011;58858;50.948;6.566;2024-01-30T18:09:06;4.65;;;1.48;;
71162;SDS011;58858;50.948;6.566;2024-01-30T18:19:07;13.85;;;2.28;;
71162;SDS011;58858;50.948;6.566;2024-01-30T18:29:08;2.65;;;1.58;;
71162;SDS011;58858;50.948;6.566;2024-01-30T18:39:09;8.98;;;1.35;;
71162;SDS011;58858;50.948;6.566;2024-01-30T18:49:10;5.43;;;1.33;;
71162;SDS011;58858;50.948;6.566;2024-01-30T18:59:12;4.47;;;1.20;;
71162;SDS011;58858;50.948;6.566;2024-01-30T19:09:17;4.78;;;1.50;;
71162;SDS011;58858;50.948;6.566;2024-01-30T19:19:20;2.65;;;1.52;;
71162;SDS011;58858;50.948;6.566;2024-01-30T19:29:21;4.60;;;2.70;;
71162;SDS011;58858;50.948;6.566;2024-01-30T19:39:22;4.57;;;1.67;;
71162;SDS011;58858;50.948;6.566;2024-01-30T19:49:23;4.20;;;2.05;;
71162;SDS011;58858;50.948;6.566;2024-01-30T19:59:24;4.68;;;1.30;;
71162;SDS011;58858;50.948;6.566;2024-01-30T20:09:25;4.47;;;1.55;;
71162;SDS011;58858;50.948;6.566;2024-01-30T20:19:26;8.05;;;1.98;;
71162;SDS011;58858;50.948;6.566;2024-01-30T20:29:27;8.40;;;1.60;;
71162;SDS011;58858;50.948;6.566;2024-01-30T20:39:29;5.82;;;1.88;;
71162;SDS011;58858;50.948;6.566;2024-01-30T20:49:30;3.33;;;1.50;;
71162;SDS011;58858;50.948;6.566;2024-01-30T20:59:31;4.07;;;1.55;;
71162;SDS011;58858;50.948;6.566;2024-01-30T21:09:32;5.78;;;3.13;;
71162;SDS011;58858;50.948;6.566;2024-01-30T21:19:33;4.20;;;2.30;;
71162;SDS011;58858;50.948;6.566;2024-01-30T21:29:34;5.53;;;2.65;;
71162;SDS011;58858;50.948;6.566;2024-01-30T21:39:35;4.60;;;2.30;;
71162;SDS011;58858;50.948;6.566;2024-01-30T21:49:39;8.82;;;2.90;;
71162;SDS011;58858;50.948;6.566;2024-01-30T21:59:40;5.63;;;2.40;;
71162;SDS011;58858;50.948;6.566;2024-01-30T22:09:42;5.53;;;3.10;;
71162;SDS011;58858;50.948;6.566;2024-01-30T22:19:43;6.57;;;3.40;;
71162;SDS011;58858;50.948;6.566;2024-01-30T22:29:44;4.75;;;3.33;;
71162;SDS011;58858;50.948;6.566;2024-01-30T22:39:45;7.43;;;3.33;;
71162;SDS011;58858;50.948;6.566;2024-01-30T22:49:46;5.45;;;3.30;;
71162;SDS011;58858;50.948;6.566;2024-01-30T22:59:47;6.82;;;3.67;;
71162;SDS011;58858;50.948;6.566;2024-01-30T23:09:48;11.43;;;4.50;;
71162;SDS011;58858;50.948;6.566;2024-01-30T23:19:49;6.93;;;3.45;;
71162;SDS011;58858;50.948;6.566;2024-01-30T23:29:50;9.38;;;4.78;;
71162;SDS011;58858;50.948;6.566;2024-01-30T23:39:52;7.78;;;4.65;;
71162;SDS011;58858;50.948;6.566;2024-01-30T23:49:53;13.10;;;5.47;;
71162;SDS011;58858;50.948;6.566;2024-01-30T23:59:54;10.02;;;5.47;;
